Elton, West Virginia
Current Conditions -  °F | °C
As of 12:11 AM on Tuesday 27 Jan 2015 (Local Time) from KBKW Reporting Station
Overcast Overcast  
Wind Chill: 11°   Ceiling: 1500
Heat Index: 21°   Visibility: 7mi
Dew Point: 16°   Wind: 9mph
Humidity: 81%   Direction: 280°W
Pressure: 29.79"   Gusts: NA
Location:  37.83°N, 80.8°W
Report Text: KBKW 270511Z AUTO 28008KT 7SM OVC015 M06/M09 A2979 RMK AO2 SNE09 P0000 T10611089
Loading
Personal Weather Stations






























Interactive Weather Map New forecast layout! Learn more

10-Day Weather Forecast

Advertisements
Track Severe Weather on mobile